sensor_id;sensor_type;location;lat;lon;timestamp;temperature;humidity
9201;DHT22;4635;48.686;9.008;2022-10-26T00:00:23;11.30;99.90
9201;DHT22;4635;48.686;9.008;2022-10-26T00:02:50;11.30;99.90
9201;DHT22;4635;48.686;9.008;2022-10-26T00:05:17;11.30;99.90
9201;DHT22;4635;48.686;9.008;2022-10-26T00:07:46;11.30;99.90
9201;DHT22;4635;48.686;9.008;2022-10-26T00:10:13;11.20;99.90
9201;DHT22;4635;48.686;9.008;2022-10-26T00:12:40;11.30;99.90
9201;DHT22;4635;48.686;9.008;2022-10-26T00:15:08;11.30;99.90
9201;DHT22;4635;48.686;9.008;2022-10-26T00:17:35;11.30;99.90
9201;DHT22;4635;48.686;9.008;2022-10-26T00:20:03;11.30;99.90
9201;DHT22;4635;48.686;9.008;2022-10-26T00:22:29;11.20;99.90
9201;DHT22;4635;48.686;9.008;2022-10-26T00:24:58;11.30;99.90
9201;DHT22;4635;48.686;9.008;2022-10-26T00:27:25;11.30;99.90
9201;DHT22;4635;48.686;9.008;2022-10-26T00:29:52;11.30;99.90
9201;DHT22;4635;48.686;9.008;2022-10-26T00:32:19;11.30;99.90
9201;DHT22;4635;48.686;9.008;2022-10-26T00:34:46;11.40;99.90
9201;DHT22;4635;48.686;9.008;2022-10-26T00:37:12;11.40;99.90
9201;DHT22;4635;48.686;9.008;2022-10-26T00:39:39;11.50;99.90
9201;DHT22;4635;48.686;9.008;2022-10-26T00:42:11;11.40;99.90
9201;DHT22;4635;48.686;9.008;2022-10-26T00:44:55;11.40;82.50
9201;DHT22;4635;48.686;9.008;2022-10-26T00:47:30;11.40;99.90
9201;DHT22;4635;48.686;9.008;2022-10-26T00:50:02;11.40;99.90
9201;DHT22;4635;48.686;9.008;2022-10-26T00:52:30;11.30;99.90
9201;DHT22;4635;48.686;9.008;2022-10-26T00:54:57;11.40;99.90
9201;DHT22;4635;48.686;9.008;2022-10-26T00:57:26;11.40;77.20
9201;DHT22;4635;48.686;9.008;2022-10-26T00:59:53;11.50;99.90
9201;DHT22;4635;48.686;9.008;2022-10-26T01:02:21;11.50;99.90
9201;DHT22;4635;48.686;9.008;2022-10-26T01:04:49;11.40;89.20
9201;DHT22;4635;48.686;9.008;2022-10-26T01:07:16;11.50;99.90
9201;DHT22;4635;48.686;9.008;2022-10-26T01:09:43;11.50;99.90
9201;DHT22;4635;48.686;9.008;2022-10-26T01:12:10;11.50;37.70
9201;DHT22;4635;48.686;9.008;2022-10-26T01:14:39;11.60;26.50
9201;DHT22;4635;48.686;9.008;2022-10-26T01:17:14;11.60;1.00
9201;DHT22;4635;48.686;9.008;2022-10-26T01:22:53;11.70;10.30
9201;DHT22;4635;48.686;9.008;2022-10-26T01:28:33;11.80;27.00
9201;DHT22;4635;48.686;9.008;2022-10-26T01:31:05;11.80;1.00
9201;DHT22;4635;48.686;9.008;2022-10-26T01:33:37;11.90;1.00
9201;DHT22;4635;48.686;9.008;2022-10-26T01:36:11;11.90;1.00
9201;DHT22;4635;48.686;9.008;2022-10-26T01:38:46;11.90;1.00
9201;DHT22;4635;48.686;9.008;2022-10-26T01:41:20;11.90;21.00
9201;DHT22;4635;48.686;9.008;2022-10-26T01:43:54;11.80;68.20
9201;DHT22;4635;48.686;9.008;2022-10-26T01:46:25;11.80;99.90
9201;DHT22;4635;48.686;9.008;2022-10-26T01:49:01;11.90;99.90
9201;DHT22;4635;48.686;9.008;2022-10-26T01:51:29;11.80;33.00
9201;DHT22;4635;48.686;9.008;2022-10-26T01:53:57;11.80;35.50
9201;DHT22;4635;48.686;9.008;2022-10-26T01:56:26;11.80;99.90
9201;DHT22;4635;48.686;9.008;2022-10-26T01:59:06;11.90;99.90
9201;DHT22;4635;48.686;9.008;2022-10-26T02:02:02;11.80;99.90
9201;DHT22;4635;48.686;9.008;2022-10-26T02:04:37;11.80;99.90
9201;DHT22;4635;48.686;9.008;2022-10-26T02:07:10;11.70;99.90
9201;DHT22;4635;48.686;9.008;2022-10-26T02:09:47;11.70;99.90
9201;DHT22;4635;48.686;9.008;2022-10-26T02:12:20;11.80;99.90
9201;DHT22;4635;48.686;9.008;2022-10-26T02:14:56;11.70;99.90
9201;DHT22;4635;48.686;9.008;2022-10-26T02:17:27;11.70;99.90
9201;DHT22;4635;48.686;9.008;2022-10-26T02:19:59;11.70;44.00
9201;DHT22;4635;48.686;9.008;2022-10-26T02:22:30;11.70;99.90
9201;DHT22;4635;48.686;9.008;2022-10-26T02:25:03;11.60;99.90
9201;DHT22;4635;48.686;9.008;2022-10-26T02:27:35;11.60;99.90
9201;DHT22;4635;48.686;9.008;2022-10-26T02:30:05;11.60;99.90
9201;DHT22;4635;48.686;9.008;2022-10-26T02:32:36;11.60;99.90
9201;DHT22;4635;48.686;9.008;2022-10-26T02:35:05;11.60;99.90
9201;DHT22;4635;48.686;9.008;2022-10-26T02:37:33;11.60;99.90
9201;DHT22;4635;48.686;9.008;2022-10-26T02:40:03;11.60;99.90
9201;DHT22;4635;48.686;9.008;2022-10-26T02:42:32;11.50;99.90
9201;DHT22;4635;48.686;9.008;2022-10-26T02:45:02;11.50;99.90
9201;DHT22;4635;48.686;9.008;2022-10-26T02:47:30;11.50;99.90
9201;DHT22;4635;48.686;9.008;2022-10-26T02:50:00;11.50;99.90
9201;DHT22;4635;48.686;9.008;2022-10-26T02:52:32;11.60;99.90
9201;DHT22;4635;48.686;9.008;2022-10-26T02:55:04;11.70;99.90
9201;DHT22;4635;48.686;9.008;2022-10-26T02:57:36;11.70;97.70
9201;DHT22;4635;48.686;9.008;2022-10-26T03:00:06;11.70;29.30
9201;DHT22;4635;48.686;9.008;2022-10-26T03:02:33;11.80;99.90
9201;DHT22;4635;48.686;9.008;2022-10-26T03:05:09;11.80;29.00
9201;DHT22;4635;48.686;9.008;2022-10-26T03:07:39;12.00;76.90
9201;DHT22;4635;48.686;9.008;2022-10-26T03:10:07;11.90;96.60
9201;DHT22;4635;48.686;9.008;2022-10-26T03:25:38;12.10;1.00
9201;DHT22;4635;48.686;9.008;2022-10-26T03:28:05;12.10;1.00
9201;DHT22;4635;48.686;9.008;2022-10-26T03:30:32;12.20;1.00
9201;DHT22;4635;48.686;9.008;2022-10-26T03:33:01;12.20;1.00
9201;DHT22;4635;48.686;9.008;2022-10-26T03:35:30;12.30;1.00
9201;DHT22;4635;48.686;9.008;2022-10-26T03:37:57;12.40;1.00
9201;DHT22;4635;48.686;9.008;2022-10-26T03:40:24;12.50;1.00
9201;DHT22;4635;48.686;9.008;2022-10-26T03:42:52;12.60;53.40
9201;DHT22;4635;48.686;9.008;2022-10-26T03:45:20;12.60;1.00
9201;DHT22;4635;48.686;9.008;2022-10-26T03:47:48;12.80;1.00
9201;DHT22;4635;48.686;9.008;2022-10-26T03:50:17;12.90;99.90
9201;DHT22;4635;48.686;9.008;2022-10-26T03:52:47;13.00;1.00
9201;DHT22;4635;48.686;9.008;2022-10-26T03:55:14;13.10;99.90
9201;DHT22;4635;48.686;9.008;2022-10-26T03:57:41;13.10;1.00
9201;DHT22;4635;48.686;9.008;2022-10-26T04:00:13;13.30;1.00
9201;DHT22;4635;48.686;9.008;2022-10-26T04:02:42;13.30;1.00
9201;DHT22;4635;48.686;9.008;2022-10-26T04:05:11;13.30;1.00
9201;DHT22;4635;48.686;9.008;2022-10-26T04:07:38;13.30;1.00
9201;DHT22;4635;48.686;9.008;2022-10-26T04:10:25;13.40;1.00
9201;DHT22;4635;48.686;9.008;2022-10-26T04:13:09;13.30;99.90
9201;DHT22;4635;48.686;9.008;2022-10-26T04:15:38;13.40;1.00
9201;DHT22;4635;48.686;9.008;2022-10-26T04:18:05;13.00;1.00
9201;DHT22;4635;48.686;9.008;2022-10-26T04:20:32;12.90;1.00
9201;DHT22;4635;48.686;9.008;2022-10-26T04:23:05;12.60;1.00
9201;DHT22;4635;48.686;9.008;2022-10-26T04:25:32;12.50;48.90
9201;DHT22;4635;48.686;9.008;2022-10-26T04:27:59;12.30;99.90
9201;DHT22;4635;48.686;9.008;2022-10-26T04:30:29;12.30;53.10
9201;DHT22;4635;48.686;9.008;2022-10-26T04:33:00;12.30;33.50
9201;DHT22;4635;48.686;9.008;2022-10-26T04:35:27;12.20;81.60
9201;DHT22;4635;48.686;9.008;2022-10-26T04:37:56;12.50;99.90
9201;DHT22;4635;48.686;9.008;2022-10-26T04:40:24;12.10;99.90
9201;DHT22;4635;48.686;9.008;2022-10-26T04:42:53;12.10;99.90
9201;DHT22;4635;48.686;9.008;2022-10-26T04:45:21;12.00;99.90
9201;DHT22;4635;48.686;9.008;2022-10-26T04:48:00;12.00;99.90
9201;DHT22;4635;48.686;9.008;2022-10-26T04:50:28;12.00;99.90
9201;DHT22;4635;48.686;9.008;2022-10-26T04:52:57;12.00;99.90
9201;DHT22;4635;48.686;9.008;2022-10-26T04:55:28;11.70;99.90
9201;DHT22;4635;48.686;9.008;2022-10-26T04:58:03;12.10;99.90
9201;DHT22;4635;48.686;9.008;2022-10-26T05:00:35;12.00;99.90
9201;DHT22;4635;48.686;9.008;2022-10-26T05:03:05;12.00;99.90
9201;DHT22;4635;48.686;9.008;2022-10-26T05:05:40;12.00;99.90
9201;DHT22;4635;48.686;9.008;2022-10-26T05:08:49;11.90;99.90
9201;DHT22;4635;48.686;9.008;2022-10-26T05:11:26;12.00;99.90
9201;DHT22;4635;48.686;9.008;2022-10-26T05:14:05;12.00;99.90
9201;DHT22;4635;48.686;9.008;2022-10-26T05:16:49;12.00;99.90
9201;DHT22;4635;48.686;9.008;2022-10-26T05:19:23;12.00;99.90
9201;DHT22;4635;48.686;9.008;2022-10-26T05:22:08;12.10;99.90
9201;DHT22;4635;48.686;9.008;2022-10-26T05:24:51;12.00;6.10
9201;DHT22;4635;48.686;9.008;2022-10-26T05:27:20;10.50;1.00
9201;DHT22;4635;48.686;9.008;2022-10-26T05:29:50;12.10;30.80
9201;DHT22;4635;48.686;9.008;2022-10-26T05:42:13;12.30;99.90
9201;DHT22;4635;48.686;9.008;2022-10-26T05:44:52;12.40;63.50
9201;DHT22;4635;48.686;9.008;2022-10-26T05:47:25;12.50;1.00
9201;DHT22;4635;48.686;9.008;2022-10-26T05:50:09;12.60;1.00
9201;DHT22;4635;48.686;9.008;2022-10-26T05:52:46;12.80;1.00
9201;DHT22;4635;48.686;9.008;2022-10-26T05:55:34;12.70;1.00
9201;DHT22;4635;48.686;9.008;2022-10-26T05:58:19;12.70;65.00
9201;DHT22;4635;48.686;9.008;2022-10-26T06:01:15;12.80;1.00
9201;DHT22;4635;48.686;9.008;2022-10-26T06:04:15;12.80;1.00
9201;DHT22;4635;48.686;9.008;2022-10-26T06:06:49;12.80;1.00
9201;DHT22;4635;48.686;9.008;2022-10-26T06:09:20;12.80;1.00
9201;DHT22;4635;48.686;9.008;2022-10-26T06:11:53;12.80;1.00
9201;DHT22;4635;48.686;9.008;2022-10-26T06:14:21;12.80;1.00
9201;DHT22;4635;48.686;9.008;2022-10-26T06:17:01;12.80;7.70
9201;DHT22;4635;48.686;9.008;2022-10-26T06:20:06;12.80;99.90
9201;DHT22;4635;48.686;9.008;2022-10-26T06:22:48;12.90;45.50
9201;DHT22;4635;48.686;9.008;2022-10-26T06:25:35;13.10;9.90
9201;DHT22;4635;48.686;9.008;2022-10-26T06:28:33;13.20;1.00
9201;DHT22;4635;48.686;9.008;2022-10-26T06:31:17;13.20;1.00
9201;DHT22;4635;48.686;9.008;2022-10-26T06:34:04;13.10;1.00
9201;DHT22;4635;48.686;9.008;2022-10-26T06:36:34;13.10;1.00
9201;DHT22;4635;48.686;9.008;2022-10-26T06:39:11;13.10;1.00
9201;DHT22;4635;48.686;9.008;2022-10-26T06:41:48;13.20;1.00
9201;DHT22;4635;48.686;9.008;2022-10-26T06:44:26;13.20;1.00
9201;DHT22;4635;48.686;9.008;2022-10-26T06:47:02;13.30;1.00
9201;DHT22;4635;48.686;9.008;2022-10-26T06:49:36;13.30;1.00
9201;DHT22;4635;48.686;9.008;2022-10-26T06:52:12;13.40;1.00
9201;DHT22;4635;48.686;9.008;2022-10-26T06:54:50;13.40;1.00
9201;DHT22;4635;48.686;9.008;2022-10-26T06:57:27;13.40;1.00
9201;DHT22;4635;48.686;9.008;2022-10-26T07:00:26;13.40;1.00
9201;DHT22;4635;48.686;9.008;2022-10-26T07:03:00;13.40;1.00
9201;DHT22;4635;48.686;9.008;2022-10-26T07:05:43;13.50;1.00
9201;DHT22;4635;48.686;9.008;2022-10-26T07:08:31;13.50;1.00
9201;DHT22;4635;48.686;9.008;2022-10-26T07:11:12;13.40;1.00
9201;DHT22;4635;48.686;9.008;2022-10-26T07:13:52;13.50;1.00
9201;DHT22;4635;48.686;9.008;2022-10-26T07:16:24;13.50;1.00
9201;DHT22;4635;48.686;9.008;2022-10-26T07:18:52;13.70;1.00
9201;DHT22;4635;48.686;9.008;2022-10-26T07:21:25;13.50;1.00
9201;DHT22;4635;48.686;9.008;2022-10-26T07:23:52;13.50;1.00
9201;DHT22;4635;48.686;9.008;2022-10-26T07:26:30;13.50;1.00
9201;DHT22;4635;48.686;9.008;2022-10-26T07:28:58;13.50;1.00
9201;DHT22;4635;48.686;9.008;2022-10-26T07:31:35;13.60;1.00
9201;DHT22;4635;48.686;9.008;2022-10-26T07:34:07;13.70;1.00
9201;DHT22;4635;48.686;9.008;2022-10-26T07:36:35;13.70;1.00
9201;DHT22;4635;48.686;9.008;2022-10-26T07:46:52;14.00;1.00
9201;DHT22;4635;48.686;9.008;2022-10-26T07:49:21;14.10;1.00
9201;DHT22;4635;48.686;9.008;2022-10-26T07:51:49;14.10;1.00
9201;DHT22;4635;48.686;9.008;2022-10-26T07:54:31;14.30;1.00
9201;DHT22;4635;48.686;9.008;2022-10-26T07:57:03;14.20;1.00
9201;DHT22;4635;48.686;9.008;2022-10-26T07:59:52;14.30;1.00
9201;DHT22;4635;48.686;9.008;2022-10-26T08:02:36;14.40;1.00
9201;DHT22;4635;48.686;9.008;2022-10-26T08:05:05;14.70;1.00
9201;DHT22;4635;48.686;9.008;2022-10-26T08:07:43;14.80;1.00
9201;DHT22;4635;48.686;9.008;2022-10-26T08:10:15;14.90;61.00
9201;DHT22;4635;48.686;9.008;2022-10-26T08:13:00;14.80;1.00
9201;DHT22;4635;48.686;9.008;2022-10-26T08:15:49;14.90;1.00
9201;DHT22;4635;48.686;9.008;2022-10-26T08:18:46;14.90;99.90
9201;DHT22;4635;48.686;9.008;2022-10-26T08:21:29;14.80;26.20
9201;DHT22;4635;48.686;9.008;2022-10-26T08:24:04;14.90;1.00
9201;DHT22;4635;48.686;9.008;2022-10-26T08:26:44;14.90;1.00
9201;DHT22;4635;48.686;9.008;2022-10-26T08:29:26;14.90;84.90
9201;DHT22;4635;48.686;9.008;2022-10-26T08:32:11;15.00;99.90
9201;DHT22;4635;48.686;9.008;2022-10-26T08:34:41;15.10;1.00
9201;DHT22;4635;48.686;9.008;2022-10-26T08:37:17;15.20;99.90
9201;DHT22;4635;48.686;9.008;2022-10-26T08:39:58;15.20;99.90
9201;DHT22;4635;48.686;9.008;2022-10-26T08:42:37;15.30;99.90
9201;DHT22;4635;48.686;9.008;2022-10-26T08:45:22;15.40;99.90
9201;DHT22;4635;48.686;9.008;2022-10-26T08:47:55;15.50;99.90
9201;DHT22;4635;48.686;9.008;2022-10-26T08:50:47;15.50;1.00
9201;DHT22;4635;48.686;9.008;2022-10-26T08:53:21;15.60;1.00
9201;DHT22;4635;48.686;9.008;2022-10-26T08:56:03;15.70;1.00
9201;DHT22;4635;48.686;9.008;2022-10-26T08:58:54;15.80;1.00
9201;DHT22;4635;48.686;9.008;2022-10-26T09:01:37;16.10;99.90
9201;DHT22;4635;48.686;9.008;2022-10-26T09:04:11;16.80;34.20
9201;DHT22;4635;48.686;9.008;2022-10-26T09:06:53;17.50;99.90
9201;DHT22;4635;48.686;9.008;2022-10-26T09:09:33;18.10;1.00
9201;DHT22;4635;48.686;9.008;2022-10-26T09:12:13;17.80;1.00
9201;DHT22;4635;48.686;9.008;2022-10-26T09:14:52;17.50;1.00
9201;DHT22;4635;48.686;9.008;2022-10-26T09:17:41;17.00;1.00
9201;DHT22;4635;48.686;9.008;2022-10-26T09:23:58;16.70;99.90
9201;DHT22;4635;48.686;9.008;2022-10-26T09:26:37;16.60;99.90
9201;DHT22;4635;48.686;9.008;2022-10-26T09:29:25;16.70;99.90
9201;DHT22;4635;48.686;9.008;2022-10-26T09:31:57;16.70;99.90
9201;DHT22;4635;48.686;9.008;2022-10-26T09:34:40;16.80;1.00
9201;DHT22;4635;48.686;9.008;2022-10-26T09:37:19;17.40;1.00
9201;DHT22;4635;48.686;9.008;2022-10-26T09:40:17;19.30;91.00
9201;DHT22;4635;48.686;9.008;2022-10-26T09:43:03;22.70;40.50
9201;DHT22;4635;48.686;9.008;2022-10-26T09:45:38;24.00;26.10
9201;DHT22;4635;48.686;9.008;2022-10-26T09:48:12;24.70;18.10
9201;DHT22;4635;48.686;9.008;2022-10-26T09:50:50;23.90;21.70
9201;DHT22;4635;48.686;9.008;2022-10-26T09:53:31;22.30;30.10
9201;DHT22;4635;48.686;9.008;2022-10-26T10:03:16;19.20;91.20
9201;DHT22;4635;48.686;9.008;2022-10-26T10:06:13;19.10;91.30
9201;DHT22;4635;48.686;9.008;2022-10-26T10:09:38;20.00;73.40
